sensor_id;sensor_type;location;lat;lon;timestamp;P1;durP1;ratioP1;P2;durP2;ratioP2
31262;SDS011;17892;52.080;9.006;2023-08-07T00:00:41;3.92;;;2.20;;
31262;SDS011;17892;52.080;9.006;2023-08-07T00:03:07;4.22;;;2.50;;
31262;SDS011;17892;52.080;9.006;2023-08-07T00:05:33;4.55;;;2.72;;
31262;SDS011;17892;52.080;9.006;2023-08-07T00:07:58;7.93;;;4.00;;
31262;SDS011;17892;52.080;9.006;2023-08-07T00:10:24;7.22;;;3.05;;
31262;SDS011;17892;52.080;9.006;2023-08-07T00:12:50;4.85;;;2.72;;
31262;SDS011;17892;52.080;9.006;2023-08-07T00:15:16;4.20;;;2.60;;
31262;SDS011;17892;52.080;9.006;2023-08-07T00:17:42;5.55;;;2.50;;
31262;SDS011;17892;52.080;9.006;2023-08-07T00:20:08;6.28;;;3.22;;
31262;SDS011;17892;52.080;9.006;2023-08-07T00:22:34;5.82;;;3.50;;
31262;SDS011;17892;52.080;9.006;2023-08-07T00:24:59;4.75;;;2.75;;
31262;SDS011;17892;52.080;9.006;2023-08-07T00:27:25;6.80;;;3.38;;
31262;SDS011;17892;52.080;9.006;2023-08-07T00:29:51;4.85;;;2.50;;
31262;SDS011;17892;52.080;9.006;2023-08-07T00:32:17;5.28;;;2.72;;
31262;SDS011;17892;52.080;9.006;2023-08-07T00:34:42;5.90;;;2.35;;
31262;SDS011;17892;52.080;9.006;2023-08-07T00:37:08;5.70;;;2.63;;
31262;SDS011;17892;52.080;9.006;2023-08-07T00:39:34;4.43;;;2.35;;
31262;SDS011;17892;52.080;9.006;2023-08-07T00:42:00;6.43;;;2.58;;
31262;SDS011;17892;52.080;9.006;2023-08-07T00:44:25;4.22;;;2.30;;
31262;SDS011;17892;52.080;9.006;2023-08-07T00:46:51;3.38;;;1.95;;
31262;SDS011;17892;52.080;9.006;2023-08-07T00:49:17;4.70;;;2.67;;
31262;SDS011;17892;52.080;9.006;2023-08-07T00:51:45;5.45;;;2.22;;
31262;SDS011;17892;52.080;9.006;2023-08-07T00:54:11;3.78;;;1.60;;
31262;SDS011;17892;52.080;9.006;2023-08-07T00:56:40;5.15;;;2.17;;
31262;SDS011;17892;52.080;9.006;2023-08-07T00:59:06;4.35;;;2.38;;
31262;SDS011;17892;52.080;9.006;2023-08-07T01:01:32;4.55;;;2.67;;
31262;SDS011;17892;52.080;9.006;2023-08-07T01:03:58;4.70;;;2.63;;
31262;SDS011;17892;52.080;9.006;2023-08-07T01:06:24;4.97;;;2.65;;
31262;SDS011;17892;52.080;9.006;2023-08-07T01:08:50;5.63;;;3.03;;
31262;SDS011;17892;52.080;9.006;2023-08-07T01:17:15;5.53;;;2.05;;
31262;SDS011;17892;52.080;9.006;2023-08-07T01:19:42;5.22;;;2.60;;
31262;SDS011;17892;52.080;9.006;2023-08-07T01:24:42;6.85;;;3.05;;
31262;SDS011;17892;52.080;9.006;2023-08-07T01:29:57;3.65;;;2.13;;
31262;SDS011;17892;52.080;9.006;2023-08-07T01:35:15;7.57;;;2.88;;
31262;SDS011;17892;52.080;9.006;2023-08-07T01:37:42;4.22;;;2.13;;
31262;SDS011;17892;52.080;9.006;2023-08-07T01:40:10;4.55;;;2.15;;
31262;SDS011;17892;52.080;9.006;2023-08-07T01:42:37;3.63;;;2.20;;
31262;SDS011;17892;52.080;9.006;2023-08-07T01:45:06;4.22;;;2.50;;
31262;SDS011;17892;52.080;9.006;2023-08-07T01:47:32;3.63;;;2.10;;
31262;SDS011;17892;52.080;9.006;2023-08-07T01:49:59;4.18;;;1.85;;
31262;SDS011;17892;52.080;9.006;2023-08-07T01:52:25;6.35;;;2.83;;
31262;SDS011;17892;52.080;9.006;2023-08-07T01:54:50;5.20;;;2.30;;
31262;SDS011;17892;52.080;9.006;2023-08-07T01:57:16;4.35;;;2.20;;
31262;SDS011;17892;52.080;9.006;2023-08-07T01:59:42;4.95;;;2.25;;
31262;SDS011;17892;52.080;9.006;2023-08-07T02:02:09;5.72;;;2.30;;
31262;SDS011;17892;52.080;9.006;2023-08-07T02:04:35;5.95;;;2.50;;
31262;SDS011;17892;52.080;9.006;2023-08-07T02:07:01;5.00;;;2.60;;
31262;SDS011;17892;52.080;9.006;2023-08-07T02:09:26;4.78;;;2.30;;
31262;SDS011;17892;52.080;9.006;2023-08-07T02:11:52;4.05;;;2.13;;
31262;SDS011;17892;52.080;9.006;2023-08-07T02:17:59;4.63;;;1.90;;
31262;SDS011;17892;52.080;9.006;2023-08-07T02:20:24;5.57;;;2.13;;
31262;SDS011;17892;52.080;9.006;2023-08-07T02:22:50;6.25;;;2.38;;
31262;SDS011;17892;52.080;9.006;2023-08-07T02:25:16;4.95;;;2.50;;
31262;SDS011;17892;52.080;9.006;2023-08-07T02:27:42;5.40;;;2.45;;
31262;SDS011;17892;52.080;9.006;2023-08-07T02:30:07;4.30;;;2.10;;
31262;SDS011;17892;52.080;9.006;2023-08-07T02:32:33;4.18;;;1.92;;
31262;SDS011;17892;52.080;9.006;2023-08-07T02:34:59;4.95;;;2.75;;
31262;SDS011;17892;52.080;9.006;2023-08-07T02:37:25;6.55;;;2.42;;
31262;SDS011;17892;52.080;9.006;2023-08-07T02:39:51;6.50;;;3.40;;
31262;SDS011;17892;52.080;9.006;2023-08-07T02:42:18;6.03;;;2.70;;
31262;SDS011;17892;52.080;9.006;2023-08-07T02:44:44;6.97;;;2.80;;
31262;SDS011;17892;52.080;9.006;2023-08-07T02:47:10;3.97;;;2.35;;
31262;SDS011;17892;52.080;9.006;2023-08-07T02:49:36;4.40;;;2.60;;
31262;SDS011;17892;52.080;9.006;2023-08-07T02:52:01;4.05;;;1.98;;
31262;SDS011;17892;52.080;9.006;2023-08-07T02:54:27;6.07;;;2.47;;
31262;SDS011;17892;52.080;9.006;2023-08-07T02:56:53;3.85;;;1.90;;
31262;SDS011;17892;52.080;9.006;2023-08-07T02:59:18;3.70;;;2.15;;
31262;SDS011;17892;52.080;9.006;2023-08-07T03:01:44;5.20;;;2.30;;
31262;SDS011;17892;52.080;9.006;2023-08-07T03:04:10;4.65;;;2.10;;
31262;SDS011;17892;52.080;9.006;2023-08-07T03:06:36;6.93;;;2.47;;
31262;SDS011;17892;52.080;9.006;2023-08-07T03:09:02;6.82;;;2.47;;
31262;SDS011;17892;52.080;9.006;2023-08-07T03:11:28;4.20;;;1.92;;
31262;SDS011;17892;52.080;9.006;2023-08-07T03:13:54;7.03;;;2.58;;
31262;SDS011;17892;52.080;9.006;2023-08-07T03:16:20;4.07;;;2.38;;
31262;SDS011;17892;52.080;9.006;2023-08-07T03:18:45;5.47;;;2.67;;
31262;SDS011;17892;52.080;9.006;2023-08-07T03:21:12;5.78;;;3.15;;
31262;SDS011;17892;52.080;9.006;2023-08-07T03:23:37;6.43;;;3.45;;
31262;SDS011;17892;52.080;9.006;2023-08-07T03:26:04;5.55;;;2.60;;
31262;SDS011;17892;52.080;9.006;2023-08-07T03:28:32;7.65;;;3.50;;
31262;SDS011;17892;52.080;9.006;2023-08-07T03:30:59;5.68;;;2.30;;
31262;SDS011;17892;52.080;9.006;2023-08-07T03:33:24;5.63;;;2.90;;
31262;SDS011;17892;52.080;9.006;2023-08-07T03:35:50;7.10;;;3.10;;
31262;SDS011;17892;52.080;9.006;2023-08-07T03:38:16;4.65;;;2.50;;
31262;SDS011;17892;52.080;9.006;2023-08-07T03:40:41;4.28;;;2.00;;
31262;SDS011;17892;52.080;9.006;2023-08-07T03:43:07;6.13;;;2.50;;
31262;SDS011;17892;52.080;9.006;2023-08-07T03:45:33;4.82;;;1.90;;
31262;SDS011;17892;52.080;9.006;2023-08-07T03:47:59;4.65;;;2.03;;
31262;SDS011;17892;52.080;9.006;2023-08-07T03:50:25;4.20;;;2.42;;
31262;SDS011;17892;52.080;9.006;2023-08-07T03:52:51;5.63;;;2.30;;
31262;SDS011;17892;52.080;9.006;2023-08-07T03:55:16;4.80;;;2.40;;
31262;SDS011;17892;52.080;9.006;2023-08-07T03:57:43;5.38;;;3.20;;
31262;SDS011;17892;52.080;9.006;2023-08-07T04:00:09;8.93;;;3.00;;
31262;SDS011;17892;52.080;9.006;2023-08-07T04:02:36;4.00;;;2.28;;
31262;SDS011;17892;52.080;9.006;2023-08-07T04:05:02;5.80;;;3.10;;
31262;SDS011;17892;52.080;9.006;2023-08-07T04:07:28;5.35;;;2.85;;
31262;SDS011;17892;52.080;9.006;2023-08-07T04:09:53;4.15;;;2.13;;
31262;SDS011;17892;52.080;9.006;2023-08-07T04:12:19;6.18;;;3.20;;
31262;SDS011;17892;52.080;9.006;2023-08-07T04:14:45;6.25;;;3.22;;
31262;SDS011;17892;52.080;9.006;2023-08-07T04:17:10;5.63;;;2.88;;
31262;SDS011;17892;52.080;9.006;2023-08-07T04:19:36;8.90;;;3.80;;
31262;SDS011;17892;52.080;9.006;2023-08-07T04:22:02;5.00;;;3.00;;
31262;SDS011;17892;52.080;9.006;2023-08-07T04:24:28;7.30;;;3.13;;
31262;SDS011;17892;52.080;9.006;2023-08-07T04:26:53;5.70;;;2.83;;
31262;SDS011;17892;52.080;9.006;2023-08-07T04:29:19;4.53;;;2.55;;
31262;SDS011;17892;52.080;9.006;2023-08-07T04:31:45;4.47;;;2.72;;
31262;SDS011;17892;52.080;9.006;2023-08-07T04:34:11;4.50;;;2.70;;
31262;SDS011;17892;52.080;9.006;2023-08-07T04:36:37;5.88;;;2.80;;
31262;SDS011;17892;52.080;9.006;2023-08-07T04:39:03;4.25;;;2.70;;
31262;SDS011;17892;52.080;9.006;2023-08-07T04:41:29;5.47;;;2.70;;
31262;SDS011;17892;52.080;9.006;2023-08-07T04:43:54;5.05;;;2.92;;
31262;SDS011;17892;52.080;9.006;2023-08-07T04:46:20;5.07;;;2.40;;
31262;SDS011;17892;52.080;9.006;2023-08-07T04:48:46;6.20;;;3.35;;
31262;SDS011;17892;52.080;9.006;2023-08-07T04:51:12;4.15;;;2.53;;
31262;SDS011;17892;52.080;9.006;2023-08-07T04:53:38;6.80;;;2.83;;
31262;SDS011;17892;52.080;9.006;2023-08-07T04:56:04;5.65;;;3.38;;
31262;SDS011;17892;52.080;9.006;2023-08-07T04:58:30;4.60;;;2.60;;
31262;SDS011;17892;52.080;9.006;2023-08-07T05:00:56;4.53;;;2.72;;
31262;SDS011;17892;52.080;9.006;2023-08-07T05:03:22;5.03;;;2.53;;
31262;SDS011;17892;52.080;9.006;2023-08-07T05:05:48;4.28;;;2.70;;
31262;SDS011;17892;52.080;9.006;2023-08-07T05:08:13;4.70;;;2.97;;
31262;SDS011;17892;52.080;9.006;2023-08-07T05:10:39;4.85;;;2.42;;
31262;SDS011;17892;52.080;9.006;2023-08-07T05:13:05;4.03;;;2.55;;
31262;SDS011;17892;52.080;9.006;2023-08-07T05:15:30;4.32;;;2.53;;
31262;SDS011;17892;52.080;9.006;2023-08-07T05:17:56;4.32;;;2.65;;
31262;SDS011;17892;52.080;9.006;2023-08-07T05:20:22;5.13;;;2.50;;
31262;SDS011;17892;52.080;9.006;2023-08-07T05:22:48;5.35;;;2.60;;
31262;SDS011;17892;52.080;9.006;2023-08-07T05:25:14;4.78;;;2.50;;
31262;SDS011;17892;52.080;9.006;2023-08-07T05:27:41;5.20;;;2.65;;
31262;SDS011;17892;52.080;9.006;2023-08-07T05:30:08;4.13;;;2.40;;
31262;SDS011;17892;52.080;9.006;2023-08-07T05:32:35;3.88;;;2.30;;
31262;SDS011;17892;52.080;9.006;2023-08-07T05:35:03;4.57;;;3.00;;
31262;SDS011;17892;52.080;9.006;2023-08-07T05:37:30;4.40;;;2.70;;
31262;SDS011;17892;52.080;9.006;2023-08-07T05:39:56;5.18;;;2.72;;
31262;SDS011;17892;52.080;9.006;2023-08-07T05:42:22;3.72;;;2.55;;
31262;SDS011;17892;52.080;9.006;2023-08-07T05:44:48;3.92;;;2.10;;
31262;SDS011;17892;52.080;9.006;2023-08-07T05:47:15;5.70;;;2.92;;
31262;SDS011;17892;52.080;9.006;2023-08-07T05:49:41;3.03;;;1.90;;
31262;SDS011;17892;52.080;9.006;2023-08-07T05:52:07;3.80;;;2.15;;
31262;SDS011;17892;52.080;9.006;2023-08-07T05:54:33;4.50;;;2.25;;
31262;SDS011;17892;52.080;9.006;2023-08-07T05:56:59;3.22;;;1.90;;
31262;SDS011;17892;52.080;9.006;2023-08-07T05:59:25;7.50;;;2.95;;
31262;SDS011;17892;52.080;9.006;2023-08-07T06:01:51;5.38;;;2.28;;
31262;SDS011;17892;52.080;9.006;2023-08-07T06:04:18;3.83;;;1.90;;
31262;SDS011;17892;52.080;9.006;2023-08-07T06:06:44;2.90;;;1.92;;
31262;SDS011;17892;52.080;9.006;2023-08-07T06:09:10;4.22;;;1.98;;
31262;SDS011;17892;52.080;9.006;2023-08-07T06:11:36;4.45;;;2.13;;
31262;SDS011;17892;52.080;9.006;2023-08-07T06:14:02;5.97;;;1.98;;
31262;SDS011;17892;52.080;9.006;2023-08-07T06:16:28;3.67;;;2.22;;
31262;SDS011;17892;52.080;9.006;2023-08-07T06:18:53;3.03;;;1.95;;
31262;SDS011;17892;52.080;9.006;2023-08-07T06:21:19;5.72;;;1.88;;
31262;SDS011;17892;52.080;9.006;2023-08-07T06:23:45;4.43;;;2.08;;
31262;SDS011;17892;52.080;9.006;2023-08-07T06:26:12;4.35;;;2.13;;
31262;SDS011;17892;52.080;9.006;2023-08-07T06:28:38;3.47;;;1.85;;
31262;SDS011;17892;52.080;9.006;2023-08-07T06:31:04;3.50;;;1.80;;
31262;SDS011;17892;52.080;9.006;2023-08-07T06:33:32;3.28;;;1.52;;
31262;SDS011;17892;52.080;9.006;2023-08-07T06:36:01;4.88;;;1.85;;
31262;SDS011;17892;52.080;9.006;2023-08-07T06:38:29;4.68;;;1.77;;
31262;SDS011;17892;52.080;9.006;2023-08-07T06:40:55;5.50;;;2.15;;
31262;SDS011;17892;52.080;9.006;2023-08-07T06:43:21;5.68;;;1.85;;
31262;SDS011;17892;52.080;9.006;2023-08-07T06:45:49;4.85;;;1.70;;
31262;SDS011;17892;52.080;9.006;2023-08-07T06:48:15;3.42;;;1.40;;
31262;SDS011;17892;52.080;9.006;2023-08-07T06:50:41;3.72;;;1.58;;
31262;SDS011;17892;52.080;9.006;2023-08-07T06:53:07;3.50;;;1.48;;
31262;SDS011;17892;52.080;9.006;2023-08-07T06:55:33;3.53;;;1.83;;
31262;SDS011;17892;52.080;9.006;2023-08-07T06:57:59;5.57;;;2.00;;
31262;SDS011;17892;52.080;9.006;2023-08-07T07:00:24;4.72;;;1.73;;
31262;SDS011;17892;52.080;9.006;2023-08-07T07:02:50;3.65;;;1.40;;
31262;SDS011;17892;52.080;9.006;2023-08-07T07:05:16;4.38;;;2.10;;
31262;SDS011;17892;52.080;9.006;2023-08-07T07:07:42;5.78;;;1.90;;
31262;SDS011;17892;52.080;9.006;2023-08-07T07:10:08;3.65;;;1.60;;
31262;SDS011;17892;52.080;9.006;2023-08-07T07:12:34;3.88;;;1.60;;
31262;SDS011;17892;52.080;9.006;2023-08-07T07:15:00;3.13;;;1.40;;
31262;SDS011;17892;52.080;9.006;2023-08-07T07:17:25;4.15;;;2.03;;
31262;SDS011;17892;52.080;9.006;2023-08-07T07:19:51;4.18;;;1.55;;
31262;SDS011;17892;52.080;9.006;2023-08-07T07:22:17;3.22;;;1.70;;
31262;SDS011;17892;52.080;9.006;2023-08-07T07:24:42;3.45;;;1.65;;
31262;SDS011;17892;52.080;9.006;2023-08-07T07:27:08;3.90;;;1.77;;
31262;SDS011;17892;52.080;9.006;2023-08-07T07:29:34;4.75;;;1.55;;
31262;SDS011;17892;52.080;9.006;2023-08-07T07:32:00;4.90;;;1.63;;
31262;SDS011;17892;52.080;9.006;2023-08-07T07:34:25;4.03;;;1.33;;
31262;SDS011;17892;52.080;9.006;2023-08-07T07:36:51;4.10;;;1.58;;
31262;SDS011;17892;52.080;9.006;2023-08-07T07:39:19;4.72;;;1.80;;
31262;SDS011;17892;52.080;9.006;2023-08-07T07:41:45;2.67;;;1.50;;
31262;SDS011;17892;52.080;9.006;2023-08-07T07:44:11;3.53;;;1.50;;
31262;SDS011;17892;52.080;9.006;2023-08-07T07:46:37;5.22;;;1.85;;
31262;SDS011;17892;52.080;9.006;2023-08-07T07:49:03;3.45;;;1.40;;
31262;SDS011;17892;52.080;9.006;2023-08-07T07:51:30;4.35;;;1.40;;
31262;SDS011;17892;52.080;9.006;2023-08-07T07:53:57;3.88;;;1.23;;
31262;SDS011;17892;52.080;9.006;2023-08-07T07:56:26;3.40;;;1.20;;
31262;SDS011;17892;52.080;9.006;2023-08-07T07:58:51;5.15;;;1.40;;
31262;SDS011;17892;52.080;9.006;2023-08-07T08:01:17;4.00;;;1.15;;
31262;SDS011;17892;52.080;9.006;2023-08-07T08:03:43;3.17;;;1.20;;
31262;SDS011;17892;52.080;9.006;2023-08-07T08:06:10;2.75;;;1.00;;
31262;SDS011;17892;52.080;9.006;2023-08-07T08:08:37;4.50;;;1.20;;
31262;SDS011;17892;52.080;9.006;2023-08-07T08:11:03;3.13;;;1.05;;
31262;SDS011;17892;52.080;9.006;2023-08-07T08:13:29;3.10;;;1.42;;
31262;SDS011;17892;52.080;9.006;2023-08-07T08:15:55;2.50;;;1.30;;
31262;SDS011;17892;52.080;9.006;2023-08-07T08:18:20;3.38;;;1.00;;
31262;SDS011;17892;52.080;9.006;2023-08-07T08:20:46;1.73;;;0.80;;
31262;SDS011;17892;52.080;9.006;2023-08-07T08:23:12;2.53;;;1.17;;
31262;SDS011;17892;52.080;9.006;2023-08-07T08:25:38;2.08;;;0.90;;
31262;SDS011;17892;52.080;9.006;2023-08-07T08:28:04;3.22;;;1.02;;
31262;SDS011;17892;52.080;9.006;2023-08-07T08:30:30;4.43;;;0.82;;
31262;SDS011;17892;52.080;9.006;2023-08-07T08:32:56;2.67;;;1.20;;
31262;SDS011;17892;52.080;9.006;2023-08-07T08:35:21;4.40;;;1.02;;
31262;SDS011;17892;52.080;9.006;2023-08-07T08:37:48;2.58;;;0.98;;
31262;SDS011;17892;52.080;9.006;2023-08-07T08:40:13;2.38;;;1.00;;
31262;SDS011;17892;52.080;9.006;2023-08-07T08:42:44;3.13;;;1.33;;
31262;SDS011;17892;52.080;9.006;2023-08-07T08:45:11;2.15;;;1.10;;
31262;SDS011;17892;52.080;9.006;2023-08-07T08:47:39;2.15;;;0.80;;
31262;SDS011;17892;52.080;9.006;2023-08-07T08:50:09;3.72;;;1.20;;
31262;SDS011;17892;52.080;9.006;2023-08-07T08:52:42;4.00;;;0.88;;
31262;SDS011;17892;52.080;9.006;2023-08-07T08:55:10;2.78;;;0.95;;
31262;SDS011;17892;52.080;9.006;2023-08-07T08:57:38;2.10;;;0.70;;
31262;SDS011;17892;52.080;9.006;2023-08-07T09:00:06;2.30;;;0.80;;
31262;SDS011;17892;52.080;9.006;2023-08-07T09:02:46;2.35;;;0.77;;
31262;SDS011;17892;52.080;9.006;2023-08-07T09:05:17;2.45;;;0.85;;
31262;SDS011;17892;52.080;9.006;2023-08-07T09:07:47;2.10;;;0.82;;
31262;SDS011;17892;52.080;9.006;2023-08-07T09:10:14;3.10;;;1.27;;
31262;SDS011;17892;52.080;9.006;2023-08-07T09:12:42;2.45;;;0.90;;
31262;SDS011;17892;52.080;9.006;2023-08-07T09:15:17;2.30;;;1.10;;
31262;SDS011;17892;52.080;9.006;2023-08-07T09:17:44;4.75;;;1.10;;
31262;SDS011;17892;52.080;9.006;2023-08-07T09:20:12;2.70;;;1.23;;
31262;SDS011;17892;52.080;9.006;2023-08-07T09:22:39;4.15;;;1.55;;
31262;SDS011;17892;52.080;9.006;2023-08-07T09:25:07;4.38;;;1.50;;
31262;SDS011;17892;52.080;9.006;2023-08-07T09:27:35;3.47;;;1.25;;
31262;SDS011;17892;52.080;9.006;2023-08-07T09:30:05;3.38;;;1.20;;
31262;SDS011;17892;52.080;9.006;2023-08-07T09:32:35;3.95;;;1.33;;
31262;SDS011;17892;52.080;9.006;2023-08-07T09:35:02;3.58;;;1.10;;
31262;SDS011;17892;52.080;9.006;2023-08-07T09:37:31;3.85;;;1.52;;
31262;SDS011;17892;52.080;9.006;2023-08-07T09:39:59;3.97;;;1.25;;
31262;SDS011;17892;52.080;9.006;2023-08-07T09:44:55;3.05;;;1.10;;
31262;SDS011;17892;52.080;9.006;2023-08-07T09:47:21;4.18;;;1.10;;
31262;SDS011;17892;52.080;9.006;2023-08-07T09:49:47;3.55;;;1.00;;
31262;SDS011;17892;52.080;9.006;2023-08-07T09:52:13;3.00;;;0.85;;
31262;SDS011;17892;52.080;9.006;2023-08-07T09:54:40;4.18;;;0.98;;
31262;SDS011;17892;52.080;9.006;2023-08-07T09:57:06;2.17;;;0.70;;
31262;SDS011;17892;52.080;9.006;2023-08-07T09:59:33;1.35;;;0.60;;
31262;SDS011;17892;52.080;9.006;2023-08-07T10:02:00;4.32;;;0.80;;
31262;SDS011;17892;52.080;9.006;2023-08-07T10:04:28;3.42;;;0.88;;
31262;SDS011;17892;52.080;9.006;2023-08-07T10:06:55;2.78;;;0.70;;
31262;SDS011;17892;52.080;9.006;2023-08-07T10:09:22;2.05;;;0.70;;
31262;SDS011;17892;52.080;9.006;2023-08-07T10:11:48;3.13;;;0.98;;
31262;SDS011;17892;52.080;9.006;2023-08-07T10:14:15;4.03;;;1.02;;
31262;SDS011;17892;52.080;9.006;2023-08-07T10:16:41;3.28;;;0.90;;
31262;SDS011;17892;52.080;9.006;2023-08-07T10:19:08;4.20;;;1.10;;
31262;SDS011;17892;52.080;9.006;2023-08-07T10:21:35;4.05;;;0.93;;
31262;SDS011;17892;52.080;9.006;2023-08-07T10:24:04;3.97;;;0.98;;
31262;SDS011;17892;52.080;9.006;2023-08-07T10:26:31;3.05;;;1.05;;
31262;SDS011;17892;52.080;9.006;2023-08-07T10:29:00;3.35;;;1.10;;
31262;SDS011;17892;52.080;9.006;2023-08-07T10:31:29;2.67;;;0.98;;
31262;SDS011;17892;52.080;9.006;2023-08-07T10:33:56;4.07;;;1.25;;
31262;SDS011;17892;52.080;9.006;2023-08-07T10:36:22;6.15;;;1.20;;
31262;SDS011;17892;52.080;9.006;2023-08-07T10:38:49;4.00;;;1.58;;
31262;SDS011;17892;52.080;9.006;2023-08-07T10:41:16;4.75;;;1.63;;
31262;SDS011;17892;52.080;9.006;2023-08-07T10:43:44;4.35;;;1.13;;
31262;SDS011;17892;52.080;9.006;2023-08-07T10:46:20;2.63;;;1.20;;
31262;SDS011;17892;52.080;9.006;2023-08-07T10:48:47;2.97;;;0.70;;
31262;SDS011;17892;52.080;9.006;2023-08-07T10:51:21;2.75;;;0.93;;
31262;SDS011;17892;52.080;9.006;2023-08-07T10:53:56;3.75;;;0.85;;
31262;SDS011;17892;52.080;9.006;2023-08-07T10:56:31;4.28;;;1.10;;
31262;SDS011;17892;52.080;9.006;2023-08-07T10:59:11;4.05;;;0.90;;
31262;SDS011;17892;52.080;9.006;2023-08-07T11:04:07;2.92;;;0.80;;
31262;SDS011;17892;52.080;9.006;2023-08-07T11:06:36;2.60;;;0.70;;
31262;SDS011;17892;52.080;9.006;2023-08-07T11:09:03;2.75;;;0.95;;
31262;SDS011;17892;52.080;9.006;2023-08-07T11:14:17;3.30;;;1.00;;
31262;SDS011;17892;52.080;9.006;2023-08-07T11:16:44;3.53;;;1.00;;
31262;SDS011;17892;52.080;9.006;2023-08-07T11:19:13;5.55;;;1.00;;
31262;SDS011;17892;52.080;9.006;2023-08-07T11:21:41;4.90;;;1.23;;
31262;SDS011;17892;52.080;9.006;2023-08-07T11:24:08;5.03;;;1.20;;
31262;SDS011;17892;52.080;9.006;2023-08-07T11:26:39;2.58;;;1.13;;
31262;SDS011;17892;52.080;9.006;2023-08-07T11:29:04;3.25;;;0.75;;
31262;SDS011;17892;52.080;9.006;2023-08-07T11:31:30;2.67;;;1.10;;
31262;SDS011;17892;52.080;9.006;2023-08-07T11:33:56;2.63;;;0.77;;
31262;SDS011;17892;52.080;9.006;2023-08-07T11:36:23;3.60;;;1.20;;
31262;SDS011;17892;52.080;9.006;2023-08-07T11:38:49;4.18;;;1.35;;
31262;SDS011;17892;52.080;9.006;2023-08-07T11:41:16;3.08;;;1.02;;
31262;SDS011;17892;52.080;9.006;2023-08-07T11:43:43;3.63;;;0.93;;
31262;SDS011;17892;52.080;9.006;2023-08-07T11:46:11;5.65;;;1.45;;
31262;SDS011;17892;52.080;9.006;2023-08-07T11:48:39;1.55;;;0.63;;
31262;SDS011;17892;52.080;9.006;2023-08-07T11:51:07;2.85;;;0.80;;
31262;SDS011;17892;52.080;9.006;2023-08-07T11:53:34;2.53;;;0.70;;
31262;SDS011;17892;52.080;9.006;2023-08-07T11:56:20;5.20;;;1.10;;
31262;SDS011;17892;52.080;9.006;2023-08-07T11:58:46;3.05;;;0.80;;
31262;SDS011;17892;52.080;9.006;2023-08-07T12:03:42;3.28;;;1.08;;
31262;SDS011;17892;52.080;9.006;2023-08-07T12:06:23;5.65;;;1.10;;
31262;SDS011;17892;52.080;9.006;2023-08-07T12:08:50;2.90;;;1.00;;
31262;SDS011;17892;52.080;9.006;2023-08-07T12:11:20;3.60;;;0.98;;
31262;SDS011;17892;52.080;9.006;2023-08-07T12:13:46;4.43;;;1.40;;
31262;SDS011;17892;52.080;9.006;2023-08-07T12:16:13;4.05;;;1.45;;
31262;SDS011;17892;52.080;9.006;2023-08-07T12:18:47;6.75;;;1.67;;
31262;SDS011;17892;52.080;9.006;2023-08-07T12:21:18;4.28;;;1.40;;
31262;SDS011;17892;52.080;9.006;2023-08-07T12:23:49;5.00;;;1.30;;
31262;SDS011;17892;52.080;9.006;2023-08-07T12:26:16;5.63;;;1.30;;
31262;SDS011;17892;52.080;9.006;2023-08-07T12:28:42;5.63;;;1.40;;
31262;SDS011;17892;52.080;9.006;2023-08-07T12:31:08;4.35;;;1.35;;
31262;SDS011;17892;52.080;9.006;2023-08-07T12:33:34;3.90;;;1.33;;
31262;SDS011;17892;52.080;9.006;2023-08-07T12:36:00;4.47;;;1.55;;
31262;SDS011;17892;52.080;9.006;2023-08-07T12:38:27;3.50;;;1.30;;
31262;SDS011;17892;52.080;9.006;2023-08-07T12:40:54;5.05;;;1.63;;
31262;SDS011;17892;52.080;9.006;2023-08-07T12:43:20;3.45;;;1.27;;
31262;SDS011;17892;52.080;9.006;2023-08-07T12:45:45;3.70;;;1.27;;
31262;SDS011;17892;52.080;9.006;2023-08-07T12:48:12;3.53;;;1.27;;
31262;SDS011;17892;52.080;9.006;2023-08-07T12:50:38;3.40;;;1.15;;
31262;SDS011;17892;52.080;9.006;2023-08-07T12:53:04;3.20;;;1.20;;
31262;SDS011;17892;52.080;9.006;2023-08-07T12:55:30;3.92;;;1.23;;
31262;SDS011;17892;52.080;9.006;2023-08-07T12:57:56;3.30;;;1.33;;
31262;SDS011;17892;52.080;9.006;2023-08-07T13:00:23;5.00;;;1.33;;
31262;SDS011;17892;52.080;9.006;2023-08-07T13:02:49;3.42;;;1.20;;
31262;SDS011;17892;52.080;9.006;2023-08-07T13:05:16;3.90;;;1.10;;
31262;SDS011;17892;52.080;9.006;2023-08-07T13:07:43;5.78;;;1.65;;
31262;SDS011;17892;52.080;9.006;2023-08-07T13:10:11;3.38;;;1.33;;
31262;SDS011;17892;52.080;9.006;2023-08-07T13:12:39;3.65;;;1.27;;
31262;SDS011;17892;52.080;9.006;2023-08-07T13:15:08;2.83;;;1.15;;
31262;SDS011;17892;52.080;9.006;2023-08-07T13:17:37;4.82;;;1.45;;
31262;SDS011;17892;52.080;9.006;2023-08-07T13:20:03;4.05;;;1.38;;
31262;SDS011;17892;52.080;9.006;2023-08-07T13:22:34;4.60;;;1.65;;
31262;SDS011;17892;52.080;9.006;2023-08-07T13:25:01;3.30;;;1.20;;
31262;SDS011;17892;52.080;9.006;2023-08-07T13:27:28;5.35;;;1.40;;
31262;SDS011;17892;52.080;9.006;2023-08-07T13:29:57;8.48;;;1.50;;
31262;SDS011;17892;52.080;9.006;2023-08-07T13:32:25;6.93;;;1.40;;
31262;SDS011;17892;52.080;9.006;2023-08-07T13:34:51;3.90;;;1.45;;
31262;SDS011;17892;52.080;9.006;2023-08-07T13:37:17;3.38;;;1.40;;
31262;SDS011;17892;52.080;9.006;2023-08-07T13:39:43;3.78;;;1.23;;
31262;SDS011;17892;52.080;9.006;2023-08-07T13:42:09;3.58;;;1.20;;
31262;SDS011;17892;52.080;9.006;2023-08-07T13:44:35;3.58;;;1.10;;
31262;SDS011;17892;52.080;9.006;2023-08-07T13:47:02;7.35;;;1.20;;
31262;SDS011;17892;52.080;9.006;2023-08-07T13:49:30;4.43;;;1.33;;
31262;SDS011;17892;52.080;9.006;2023-08-07T13:51:55;4.05;;;1.50;;
31262;SDS011;17892;52.080;9.006;2023-08-07T13:54:21;4.80;;;1.30;;
31262;SDS011;17892;52.080;9.006;2023-08-07T13:56:47;5.10;;;1.50;;
31262;SDS011;17892;52.080;9.006;2023-08-07T13:59:13;3.45;;;1.30;;
31262;SDS011;17892;52.080;9.006;2023-08-07T14:01:38;3.78;;;1.40;;
31262;SDS011;17892;52.080;9.006;2023-08-07T14:04:04;3.80;;;1.23;;
31262;SDS011;17892;52.080;9.006;2023-08-07T14:06:31;3.78;;;1.38;;
31262;SDS011;17892;52.080;9.006;2023-08-07T14:08:56;3.70;;;1.15;;
31262;SDS011;17892;52.080;9.006;2023-08-07T14:11:22;4.72;;;1.27;;
31262;SDS011;17892;52.080;9.006;2023-08-07T14:13:52;3.53;;;0.95;;
31262;SDS011;17892;52.080;9.006;2023-08-07T14:16:18;5.45;;;1.13;;
31262;SDS011;17892;52.080;9.006;2023-08-07T14:18:44;4.30;;;1.20;;
31262;SDS011;17892;52.080;9.006;2023-08-07T14:21:10;3.95;;;1.42;;
31262;SDS011;17892;52.080;9.006;2023-08-07T14:23:35;4.30;;;1.30;;
31262;SDS011;17892;52.080;9.006;2023-08-07T14:26:01;4.32;;;1.20;;
31262;SDS011;17892;52.080;9.006;2023-08-07T14:28:27;3.67;;;1.10;;
31262;SDS011;17892;52.080;9.006;2023-08-07T14:30:53;4.13;;;1.60;;
31262;SDS011;17892;52.080;9.006;2023-08-07T14:33:22;3.50;;;1.10;;
31262;SDS011;17892;52.080;9.006;2023-08-07T14:35:47;5.60;;;1.20;;
31262;SDS011;17892;52.080;9.006;2023-08-07T14:38:13;6.30;;;1.10;;
31262;SDS011;17892;52.080;9.006;2023-08-07T14:40:39;2.88;;;0.98;;
31262;SDS011;17892;52.080;9.006;2023-08-07T14:43:06;3.53;;;1.23;;
31262;SDS011;17892;52.080;9.006;2023-08-07T14:45:32;4.57;;;1.15;;
31262;SDS011;17892;52.080;9.006;2023-08-07T14:47:57;4.45;;;1.20;;
31262;SDS011;17892;52.080;9.006;2023-08-07T14:50:23;3.20;;;0.93;;
31262;SDS011;17892;52.080;9.006;2023-08-07T14:52:49;3.08;;;0.93;;
31262;SDS011;17892;52.080;9.006;2023-08-07T14:55:14;5.60;;;1.00;;
31262;SDS011;17892;52.080;9.006;2023-08-07T14:57:40;2.75;;;1.17;;
31262;SDS011;17892;52.080;9.006;2023-08-07T15:00:06;4.10;;;1.48;;
31262;SDS011;17892;52.080;9.006;2023-08-07T15:02:34;4.80;;;1.15;;
31262;SDS011;17892;52.080;9.006;2023-08-07T15:04:59;3.45;;;1.05;;
31262;SDS011;17892;52.080;9.006;2023-08-07T15:07:25;4.60;;;1.35;;
31262;SDS011;17892;52.080;9.006;2023-08-07T15:09:51;1.80;;;0.80;;
31262;SDS011;17892;52.080;9.006;2023-08-07T15:12:16;2.58;;;0.95;;